Flight Track Log - Related Links

Times and Time Zones

All times are in EDT time to prevent confusion due to time zone crossing. See the AAL2467 flight status page for this flight to view local times or setup timezone preferences in your user account.

Time Position Orientation Groundspeed Altitude Reporting Facility
EDT Latitude Longitude Course Direction KTS MPH feet Rate Location/Type
Fri 06:53:31 PM 32.9667 -97.0667 295° West 197 227 2,900  Level Dallas / Fort Worth TRACON
Fri 06:54:00 PM 32.6907 -97.0779 248° West  Level FlightAware Approximate
Fri 06:54:31 PM 33.0167 -97.1167 320° Northwest 247 284 4,700  Level Dallas / Fort Worth TRACON
Fri 06:55:00 PM 32.6833 -97.2009 270° West  Level FlightAware Approximate
Fri 06:55:31 PM 33.0000 -97.2000 257° West 254 292 7,000  Level Dallas / Fort Worth TRACON
Fri 06:56:00 PM 32.7123 -97.3172 293° West  Level FlightAware Approximate
Fri 06:56:15 PM 32.9919 -97.2622 261° West 272 313 8,700  Level Fort Worth Center
Fri 06:57:00 PM 32.7540 -97.4318 293° West  Level FlightAware Approximate
Fri 06:57:15 PM 32.9711 -97.3442 253° West 286 329 10,800  Level Fort Worth Center
Fri 06:58:00 PM 32.7971 -97.5457 295° West  Level FlightAware Approximate
Fri 06:58:15 PM 32.9419 -97.4531 252° West 310 357 12,400  Level Fort Worth Center
Fri 06:59:15 PM 32.9147 -97.5519 252° West 343 395 14,600 2,400 Climbing Fort Worth Center
Fri 07:00:15 PM 32.8833 -97.6633 251° West 354 407 17,200 2,400 Climbing Fort Worth Center
Fri 07:01:15 PM 32.8642 -97.7967 260° West 361 415 19,400 2,000 Climbing Fort Worth Center
Fri 07:02:15 PM 32.8636 -97.9106 270° West 380 437 21,200 1,900 Climbing Fort Worth Center
Fri 07:03:15 PM 32.8631 -98.0539 270° West 391 450 23,200 1,900 Climbing Fort Worth Center
Fri 07:04:15 PM 32.8622 -98.1925 270° West 405 466 25,000 1,650 Climbing Fort Worth Center
Fri 07:05:15 PM 32.8592 -98.3286 269° West 416 479 26,500 1,550 Climbing Fort Worth Center
Fri 07:06:15 PM 32.8603 -98.4644 271° West 428 493 28,100 1,600 Climbing Fort Worth Center
Fri 07:07:15 PM 32.8842 -98.6008 282° West 421 484 29,700 1,750 Climbing Fort Worth Center
Fri 07:08:15 PM 32.9161 -98.7325 286° West 421 484 31,600 1,650 Climbing Fort Worth Center
Fri 07:09:15 PM 32.9481 -98.8617 286° West 415 478 33,000 1,200 Climbing Fort Worth Center
Fri 07:10:15 PM 32.9819 -98.9911 287° West 415 478 34,000 500 Climbing Fort Worth Center
Fri 07:11:15 PM 33.0097 -99.1178 285° West 410 472 34,000  Level Fort Worth Center
Fri 07:12:15 PM 33.0392 -99.2422 286° West 399 459 34,000  Level Fort Worth Center
Fri 07:13:15 PM 33.0706 -99.3694 286° West 399 459 34,000  Level Fort Worth Center
Fri 07:14:15 PM 33.1000 -99.4964 286° West 399 459 34,000  Level Fort Worth Center
Fri 07:15:15 PM 33.1289 -99.6236 285° West 399 459 34,000  Level Fort Worth Center
Fri 07:16:15 PM 33.1600 -99.7533 286° West 399 459 34,000  Level Fort Worth Center
Fri 07:17:15 PM 33.1889 -99.8833 285° West 399 459 34,000  Level Fort Worth Center
Fri 07:18:15 PM 33.2197 -100.0108 286° West 399 459 34,000  Level Fort Worth Center
Fri 07:19:15 PM 33.2483 -100.1408 285° West 399 459 34,000  Level Fort Worth Center
Fri 07:20:15 PM 33.2767 -100.2683 285° West 399 459 34,000  Level Fort Worth Center
Fri 07:21:15 PM 33.3069 -100.4011 285° West 399 459 34,000  Level Fort Worth Center
Fri 07:22:15 PM 33.3372 -100.5314 286° West 399 459 34,000  Level Fort Worth Center
Fri 07:23:15 PM 33.3653 -100.6617 284° West 399 459 34,000  Level Fort Worth Center
Fri 07:24:15 PM 33.3931 -100.7919 284° West 399 459 34,000  Level Fort Worth Center
Fri 07:25:15 PM 33.4228 -100.9225 285° West 399 459 34,000  Level Fort Worth Center
Fri 07:26:15 PM 33.4489 -101.0381 285° West 399 459 34,000  Level Fort Worth Center
Fri 07:27:15 PM 33.4800 -101.1814 285° West 399 459 34,000 -200 Level Fort Worth Center
Fri 07:28:15 PM 33.5058 -101.2969 285° West 399 459 33,600 -450 Descending Fort Worth Center
Fri 07:29:15 PM 33.5347 -101.4403 284° West 399 459 33,100 -500 Descending Fort Worth Center
Fri 07:30:15 PM 33.5600 -101.5586 284° West 399 459 32,600 -450 Descending Fort Worth Center
Fri 07:31:15 PM 33.5908 -101.6922 286° West 406 467 32,200 -300 Descending Fort Worth Center
Fri 07:32:15 PM 33.6197 -101.8258 285° West 406 467 32,000 -100 Descending Fort Worth Center
Fri 07:33:15 PM 33.6478 -101.9744 283° West 411 473 32,000  Level Fort Worth Center
Fri 07:34:15 PM 33.6725 -102.0931 284° West 418 481 32,000  Level Fort Worth Center
Fri 07:35:15 PM 33.7028 -102.2344 284° West 413 475 32,000  Level Fort Worth Center
Fri 07:36:15 PM 33.7308 -102.3683 284° West 413 475 32,000  Level Fort Worth Center
Fri 07:37:15 PM 33.7589 -102.5022 284° West 413 475 32,000  Level Fort Worth Center
Fri 07:38:54 PM 33.7986 -102.6942 284° West 410 472 32,000  Level Albuquerque Center
Fri 07:39:56 PM 33.8308 -102.8525 284° West 410 472 32,000  Level Albuquerque Center
Fri 07:40:58 PM 33.8572 -102.9844 284° West 408 470 32,000  Level Albuquerque Center
Fri 07:41:59 PM 33.8853 -103.1131 285° West 403 464 32,000  Level Albuquerque Center
Fri 07:43:01 PM 33.9108 -103.2444 283° West 402 463 32,000  Level Albuquerque Center
Fri 07:44:03 PM 33.9364 -103.3769 283° West 407 468 32,000  Level Albuquerque Center
Fri 07:45:04 PM 33.9619 -103.5075 283° West 404 465 32,000  Level Albuquerque Center
Fri 07:46:06 PM 33.9867 -103.6406 283° West 406 467 32,000  Level Albuquerque Center
Fri 07:47:08 PM 34.0186 -103.8044 283° West 407 468 32,000  Level Albuquerque Center
Fri 07:48:09 PM 34.0439 -103.9389 283° West 407 468 32,000  Level Albuquerque Center
Fri 07:49:11 PM 34.0692 -104.0719 283° West 405 466 32,000  Level Albuquerque Center
Fri 07:50:12 PM 34.0956 -104.2019 284° West 399 459 32,000  Level Albuquerque Center
Fri 07:51:14 PM 34.1197 -104.3350 282° West 401 461 32,000  Level Albuquerque Center
Fri 07:52:16 PM 34.1453 -104.4661 283° West 399 459 32,000  Level Albuquerque Center
Fri 07:53:17 PM 34.1697 -104.5986 283° West 400 460 32,000  Level Albuquerque Center
Fri 07:54:19 PM 34.1956 -104.7317 283° West 401 461 32,000  Level Albuquerque Center
Fri 07:55:20 PM 34.2200 -104.8664 282° West 405 466 32,000  Level Albuquerque Center
Fri 07:56:22 PM 34.2453 -104.9972 283° West 400 460 32,000  Level Albuquerque Center
Fri 07:57:24 PM 34.2686 -105.1275 282° West 396 456 32,000  Level Albuquerque Center
Fri 07:58:25 PM 34.2911 -105.2567 282° West 391 450 32,000  Level Albuquerque Center
Fri 07:59:27 PM 34.3181 -105.4078 282° West 391 450 32,000  Level Albuquerque Center
Fri 08:00:29 PM 34.3431 -105.5386 283° West 393 452 32,000  Level Albuquerque Center
Fri 08:01:30 PM 34.3656 -105.6703 282° West 396 456 32,000  Level Albuquerque Center
Fri 08:02:32 PM 34.3714 -105.8078 273° West 402 463 32,000  Level Albuquerque Center
Fri 08:03:34 PM 34.3756 -105.9464 272° West 408 470 32,000  Level Albuquerque Center
Fri 08:04:35 PM 34.3792 -106.0822 272° West 402 463 32,000  Level Albuquerque Center
Fri 08:05:37 PM 34.3814 -106.2186 271° West 401 461 32,000  Level Albuquerque Center
Fri 08:06:39 PM 34.3844 -106.3464 272° West 404 465 32,000  Level Albuquerque Center
Fri 08:07:40 PM 34.3878 -106.4828 272° West 404 465 32,000  Level Albuquerque Center
Fri 08:08:42 PM 34.3922 -106.6414 272° West 395 455 32,000  Level Albuquerque Center
Fri 08:09:44 PM 34.3953 -106.7778 272° West 400 460 32,000  Level Albuquerque Center
Fri 08:10:45 PM 34.3975 -106.9144 271° West 403 464 32,000  Level Albuquerque Center
Fri 08:11:47 PM 34.4000 -107.0519 271° West 407 468 32,000  Level Albuquerque Center
Fri 08:12:49 PM 34.4031 -107.1922 272° West 411 473 32,000  Level Albuquerque Center
Fri 08:13:50 PM 34.4064 -107.3306 272° West 411 473 32,000  Level Albuquerque Center
Fri 08:14:52 PM 34.4083 -107.4681 271° West 409 471 32,000  Level Albuquerque Center
Fri 08:15:54 PM 34.4103 -107.6058 271° West 408 470 32,000  Level Albuquerque Center
Fri 08:16:56 PM 34.4122 -107.7431 271° West 407 468 32,000  Level Albuquerque Center
Fri 08:17:57 PM 34.4147 -107.9075 271° West 407 468 32,000  Level Albuquerque Center
Fri 08:18:59 PM 34.4139 -108.0444 270° West 406 467 32,000  Level Albuquerque Center
Fri 08:20:01 PM 34.4128 -108.1819 269° West 408 470 32,000  Level Albuquerque Center
Fri 08:21:03 PM 34.4117 -108.3161 269° West 404 465 32,000  Level Albuquerque Center
Fri 08:22:04 PM 34.4111 -108.4519 270° West 402 463 32,000  Level Albuquerque Center
Fri 08:23:06 PM 34.4097 -108.6061 269° West 397 457 32,000  Level Albuquerque Center
Fri 08:24:08 PM 34.4078 -108.7333 269° West 395 455 32,000  Level Albuquerque Center
Fri 08:25:09 PM 34.4067 -108.8619 269° West 397 457 32,000  Level Albuquerque Center
Fri 08:26:11 PM 34.4033 -109.0103 268° West 396 456 32,000  Level Albuquerque Center
Fri 08:27:13 PM 34.4017 -109.1372 269° West 395 455 32,000  Level Albuquerque Center
Fri 08:28:14 PM 34.3997 -109.2878 269° West 397 457 32,000  Level Albuquerque Center
Fri 08:29:16 PM 34.3967 -109.4169 268° West 400 460 32,000  Level Albuquerque Center
Fri 08:30:18 PM 34.3942 -109.5689 269° West 401 461 32,000 634 Level Albuquerque Center
Fri 08:31:19 PM 34.3917 -109.6964 269° West 399 459 33,300 1,415 Climbing Albuquerque Center
Fri 08:32:21 PM 34.3892 -109.8233 269° West 395 455 34,900 1,317 Climbing Albuquerque Center
Fri 08:33:22 PM 34.3856 -109.9667 268° West 386 444 36,000 537 Climbing Albuquerque Center
Fri 08:34:24 PM 34.3828 -110.0897 268° West 383 441 36,000 290 Level Albuquerque Center
Fri 08:35:26 PM 34.3792 -110.2350 268° West 385 443 36,600 585 Climbing Albuquerque Center
Fri 08:36:27 PM 34.3753 -110.3619 268° West 390 449 37,200 683 Climbing Albuquerque Center
Fri 08:37:29 PM 34.3731 -110.4922 269° West 399 459 38,000 390 Climbing Albuquerque Center
Fri 08:38:30 PM 34.3717 -110.6231 269° West 394 453 38,000  Level Albuquerque Center
Fri 08:39:32 PM 34.3636 -110.7483 266° West 382 440 38,000  Level Albuquerque Center
Fri 08:40:34 PM 34.3586 -110.9017 268° West 381 438 38,000  Level Albuquerque Center
Fri 08:41:35 PM 34.3547 -111.0278 268° West 378 435 38,000  Level Albuquerque Center
Fri 08:42:37 PM 34.3508 -111.1567 268° West 382 440 38,000  Level Albuquerque Center
Fri 08:43:38 PM 34.3464 -111.2842 268° West 382 440 38,000  Level Albuquerque Center
Fri 08:44:40 PM 34.3425 -111.4114 268° West 381 438 38,000  Level Albuquerque Center
Fri 08:45:42 PM 34.3372 -111.5386 267° West 382 440 38,000  Level Albuquerque Center
Fri 08:46:43 PM 34.3325 -111.6661 267° West 383 441 38,000  Level Albuquerque Center
Fri 08:47:45 PM 34.3272 -111.8181 268° West 382 440 38,000  Level Albuquerque Center
Fri 08:48:46 PM 34.3225 -111.9436 267° West 380 437 38,000  Level Albuquerque Center
Fri 08:49:48 PM 34.3167 -112.0683 267° West 377 434 38,000  Level Albuquerque Center
Fri 08:50:49 PM 34.3119 -112.1942 267° West 377 434 38,000  Level Albuquerque Center
Fri 08:51:51 PM 34.3067 -112.3206 267° West 378 435 38,000  Level Albuquerque Center
Fri 08:52:53 PM 34.3017 -112.4469 267° West 378 435 38,000  Level Albuquerque Center
Fri 08:53:54 PM 34.2953 -112.5997 267° West 380 437 38,000  Level Albuquerque Center
Fri 08:54:56 PM 34.2889 -112.7283 267° West 383 441 38,000  Level Albuquerque Center
Fri 08:55:57 PM 34.2825 -112.8581 267° West 386 444 38,000  Level Albuquerque Center
Fri 08:56:59 PM 34.2767 -112.9858 267° West 385 443 38,000  Level Albuquerque Center
Fri 08:58:00 PM 34.2706 -113.1119 267° West 379 436 38,000  Level Albuquerque Center
Fri 08:59:02 PM 34.2647 -113.2367 267° West 376 433 38,000  Level Albuquerque Center
Fri 09:00:03 PM 34.2583 -113.3633 267° West 377 434 38,000  Level Albuquerque Center
Fri 09:01:05 PM 34.2519 -113.4883 266° West 376 433 38,000  Level Albuquerque Center
Fri 09:02:06 PM 34.2444 -113.6244 266° West 376 433 38,000  Level Albuquerque Center
Fri 09:03:08 PM 34.2372 -113.7511 266° West 378 435 38,000  Level Albuquerque Center
Fri 09:04:09 PM 34.2289 -113.9058 266° West 383 441 38,000  Level Albuquerque Center
Fri 09:05:11 PM 34.2214 -114.0339 266° West 383 441 38,000  Level Albuquerque Center
Fri 09:06:12 PM 34.2144 -114.1619 266° West 382 440 38,000  Level Albuquerque Center
Fri 09:07:14 PM 34.2072 -114.2894 266° West 382 440 38,000 -56 Level Albuquerque Center
Fri 09:08:00 PM 34.2031 -114.3925 267° West 382 440 37,900  Descending Los Angeles Center
Fri 09:09:02 PM 34.1944 -114.5183 265° West 378 435 38,000 48 Climbing Los Angeles Center
Fri 09:10:04 PM 34.1875 -114.6458 266° West 377 434 38,000  Level Los Angeles Center
Fri 09:11:06 PM 34.1797 -114.7719 266° West 381 438 38,000 -48 Level Los Angeles Center
Fri 09:12:08 PM 34.1714 -114.8986 265° West 380 437 37,900 -48 Descending Los Angeles Center
Fri 09:13:10 PM 34.1619 -115.0519 266° West 384 442 37,900 48 Level Los Angeles Center
Fri 09:14:12 PM 34.1536 -115.1786 265° West 382 440 38,000 48 Climbing Los Angeles Center
Fri 09:15:14 PM 34.1447 -115.3047 265° West 380 437 38,000  Level Los Angeles Center
Fri 09:16:16 PM 34.1361 -115.4339 265° West 385 443 38,000  Level Los Angeles Center
Fri 09:17:18 PM 34.1267 -115.5628 265° West 387 445 38,000 -44 Level Los Angeles Center
Fri 09:18:32 PM 34.1194 -115.6906 266° West 385 443 37,900 -482 Descending Los Angeles Center
Fri 09:19:35 PM 34.0983 -115.8686 262° West 384 442 36,900 -912 Descending Los Angeles Center
Fri 09:20:37 PM 34.0792 -115.9975 260° West 390 449 36,000 -968 Descending Los Angeles Center
Fri 09:21:39 PM 34.0592 -116.1261 259° West 392 451 34,900 -1,935 Descending Los Angeles Center
Fri 09:22:41 PM 34.0400 -116.2586 260° West 400 460 32,000 -2,710 Descending Los Angeles Center
Fri 09:23:43 PM 34.0197 -116.3942 260° West 410 472 29,300 -2,439 Descending Los Angeles Center
Fri 09:24:44 PM 34.0022 -116.5247 261° West 399 459 27,000 -2,419 Descending Los Angeles Center
Fri 09:25:47 PM 33.9908 -116.6750 265° West 379 436 24,300 -2,304 Descending Los Angeles Center
Fri 09:26:49 PM 33.9806 -116.7969 264° West 370 426 22,200 -2,032 Descending Los Angeles Center
Fri 09:27:51 PM 33.9711 -116.9156 265° West 361 415 20,100 -2,222 Descending Los Angeles Center
Fri 09:28:10 PM 33.9667 -116.9667 264° West 351 404 19,200 -2,278 Descending Southern California TRACON
Fri 09:29:10 PM 33.9500 -117.0833 260° West 358 412 17,100 -1,450 Descending Southern California TRACON
Fri 09:30:10 PM 33.9500 -117.2000 270° West 332 382 16,300 -800 Descending Southern California TRACON
Fri 09:31:10 PM 33.9333 -117.3167 260° West 339 390 15,500 -850 Descending Southern California TRACON
Fri 09:32:10 PM 33.9500 -117.4167 281° West 326 375 14,600 -1,100 Descending Southern California TRACON
Fri 09:33:10 PM 33.9833 -117.5167 292° West 310 357 13,300 -1,488 Descending Southern California TRACON
Fri 09:34:11 PM 34.0167 -117.6167 292° West 347 399 11,600 -1,785 Descending Southern California TRACON
Fri 09:35:11 PM 34.0000 -117.7167 259° West 279 321 9,700 -1,550 Descending Southern California TRACON
Fri 09:36:11 PM 34.0000 -117.8000 270° West 287 330 8,500 -1,300 Descending Southern California TRACON
Fri 09:37:11 PM 33.9833 -117.9000 259° West 284 327 7,100 -1,238 Descending Southern California TRACON
Fri 09:38:17 PM 33.9833 -118.0000 270° West 263 303 5,900 -952 Descending Southern California TRACON
Fri 09:39:17 PM 33.9667 -118.0833 256° West 210 242 5,100 -879 Descending Southern California TRACON
Fri 09:40:13 PM 33.9633 -118.1311 265° West 204 235 4,200 -964 Descending Los Angeles Center

Login

Don't have an account? Register now (free) for customized features, flight alerts, and more!